Main page
METAR-TAF:

METAR-TAF

Airports :

Chambéry Airport

Chambery / Aix-Les-Bains, France

latitude: 45-39N, longitude: 005-53E, elevation: 235 m

Current weather observation

The report was made 40 minutes ago, at 13:00 UTC
Wind 6 kt from the North/Northwest
Temperature 27°C
Humidity 51%
Pressure 1013 hPa
Visibility 10 km or more
no clouds below 1500 m and no cumulonimbus

METAR: LFLB 171300Z AUTO 34006KT CAVOK 27/16 Q1013 NOSIG

Time: 15:40 (13:40 UTC)

Forecast

The report was made 5 hours and 40 minutes ago, at 08:00 UTC
Forecast valid from 17 at 09 UTC to 18 at 09 UTC
Wind 6 kt from the North
Visibility 10 km or more
no clouds below 1500 m and no cumulonimbus
Becoming
from 17 at 20 UTC to 17 at 22 UTC
Wind 4 kt from the South/Southeast
Becoming
from 18 at 06 UTC to 18 at 08 UTC
Wind 6 kt from the North

TAF: LFLB 170800Z 1709/1809 36006KT CAVOK BECMG 1720/1722 16004KT BECMG 1806/1808 36006KT

Weather observations and forecasts of more than 4000 airports (METAR and TAF reports).

The available stations are represented by yellow and red dots on the map.

Hover mouse over dot to see the name of the station.

Then click to see weather observations and forecasts.

To change the map : click on the green buttons with a black cross to zoom in, on the green button with a dash to zoom out, or on the green arrows for adjacent maps.


METAR-TAF: